ADDS METAR Data INFO
IDs: Format: Raw Decoded Include TAF

Data at: 2136 UTC 15 Dec 2017

KMLT 152053Z AUTO 00000KT 10SM CLR M08/M15 A2992 RMK AO2 SLP145 T10831150 56003 TSNO
KMLT 151953Z AUTO 00000KT 10SM CLR M07/M16 A2992 RMK AO2 SLP144 T10721156 TSNO
KMLT 151853Z AUTO 29005KT 10SM CLR M07/M17 A2991 RMK AO2 SLP143 T10671167 TSNO
KMLT 151753Z AUTO VRB05KT 10SM CLR M07/M17 A2993 RMK AO2 SLP147 T10721167 11072 21172 56011 TSNO
KMLT 151653Z AUTO VRB06G15KT 10SM CLR M08/M17 A2994 RMK AO2 SLP151 T10831167 TSNO
KMLT 151553Z AUTO 28008KT 10SM CLR M09/M17 A2994 RMK AO2 SLP153 T10941172 TSNO
KMLT 151453Z AUTO 29008KT 10SM CLR M11/M18 A2996 RMK AO2 SLP159 T11111178 51016 TSNO
KMLT 151353Z AUTO VRB05KT 10SM CLR M14/M19 A2995 RMK AO2 SLP156 T11391189 TSNO
KMLT 151253Z AUTO VRB03KT 10SM CLR M17/M19 A2992 RMK AO2 SLP148 T11671194 TSNO
KMLT 151153Z AUTO 27006KT 10SM CLR M15/M19 A2991 RMK AO2 SLP143 T11501194 11144 21161 53024 TSNO
KMLT 151053Z AUTO 26004KT 10SM CLR M16/M19 A2989 RMK AO2 SLP135 T11561194 TSNO
KMLT 150953Z AUTO VRB03KT 10SM CLR M16/M19 A2986 RMK AO2 SLP126 T11561194 TSNO
KMLT 150853Z AUTO 25004KT 10SM CLR M15/M19 A2984 RMK AO2 SLP119 T11501194 51018 TSNO
KMLT 150753Z AUTO VRB06KT 10SM CLR M15/M19 A2982 RMK AO2 SLP113 T11501194 TSNO
KMLT 150653Z AUTO 27010G20KT 240V310 10SM CLR M15/M20 A2981 RMK AO2 SLP107 T11501200 TSNO
KMLT 150553Z AUTO 27009G21KT 10SM CLR M14/M20 A2978 RMK AO2 SLP101 T11441200 11139 21150 51022 TSNO
KMLT 150453Z AUTO 27009G20KT 10SM CLR M14/M19 A2976 RMK AO2 SLP094 T11441194 411061144 TSNO
KMLT 150353Z AUTO 28007G14KT 10SM CLR M14/M19 A2974 RMK AO2 SLP085 T11441194 TSNO
KMLT 150253Z AUTO 28007G14KT 10SM CLR M14/M19 A2972 RMK AO2 SLP079 T11441194 51019 TSNO
KMLT 150153Z AUTO 27008KT 10SM CLR M14/M19 A2970 RMK AO2 SLP073 T11441189 TSNO
KMLT 150053Z AUTO 29007KT 10SM SCT033 M14/M19 A2968 RMK AO2 SLP067 T11441189 TSNO
KMLT 142353Z AUTO 29007KT 10SM BKN032 M14/M19 A2966 RMK AO2 SLP059 T11391189 11106 21144 51036 TSNO
KMLT 142253Z AUTO 30009KT 10SM FEW035 M14/M18 A2963 RMK AO2 SLP048 T11391183 TSNO
KMLT 142153Z AUTO 28006KT 10SM FEW031 M13/M18 A2959 RMK AO2 SLP033 T11331178 TSNO
KMLT 142053Z AUTO 27008G18KT 230V300 10SM CLR M12/M18 A2955 RMK AO2 SLP021 T11171178 53021 TSNO
KMLT 141953Z AUTO 27008G17KT 10SM CLR M11/M17 A2952 RMK AO2 SLP009 T11061167 TSNO
KMLT 141853Z AUTO 28009G18KT 10SM FEW035 M11/M17 A2950 RMK AO2 SLP004 T11111172 TSNO
KMLT 141753Z AUTO 26011G20KT 10SM CLR M12/M18 A2949 RMK AO2 SLP999 T11221178 11117 21128 58003 TSNO
KMLT 141653Z AUTO 28009G16KT 10SM CLR M12/M18 A2949 RMK AO2 SLP000 T11221178 TSNO
KMLT 141553Z AUTO 27009G16KT 10SM CLR M12/M18 A2950 RMK AO2 SLP004 T11221178 TSNO
KMLT 141453Z AUTO 28009G16KT 250V320 10SM CLR M13/M18 A2950 RMK AO2 SLP003 T11281178 51027 TSNO
KMLT 141410Z AUTO VRB05KT 10SM SCT025 SCT120 M12/M17 A2949 RMK AO2 T11221167 TSNO
KMLT 141353Z AUTO 26006KT 9SM BKN025 M12/M17 A2948 RMK AO2 SLP997 T11221172 TSNO
KMLT 141345Z AUTO 26007KT 10SM BKN026 M12/M17 A2948 RMK AO2 T11221167 TSNO
KMLT 141253Z AUTO VRB04KT 10SM CLR M13/M17 A2945 RMK AO2 SLP987 T11281167 TSNO
KMLT 141153Z AUTO 28008KT 10SM CLR M13/M17 A2942 RMK AO2 SLP976 70001 T11281172 11117 21144 52019 TSNO
KMLT 141053Z AUTO VRB03KT 10SM CLR M13/M17 A2941 RMK AO2 SLP971 T11281172 TSNO
KMLT 140953Z AUTO 27008KT 10SM CLR M13/M18 A2938 RMK AO2 SLP960 T11281178 TSNO